sensor_id;sensor_type;location;lat;lon;timestamp;temperature;humidity
21906;DHT22;11117;48.644;9.006;2022-10-16T00:00:38;15.60;99.90
21906;DHT22;11117;48.644;9.006;2022-10-16T00:03:04;15.70;99.90
21906;DHT22;11117;48.644;9.006;2022-10-16T00:05:33;15.70;99.90
21906;DHT22;11117;48.644;9.006;2022-10-16T00:08:02;15.60;99.90
21906;DHT22;11117;48.644;9.006;2022-10-16T00:10:28;15.60;99.90
21906;DHT22;11117;48.644;9.006;2022-10-16T00:12:55;15.50;99.90
21906;DHT22;11117;48.644;9.006;2022-10-16T00:15:21;15.50;99.90
21906;DHT22;11117;48.644;9.006;2022-10-16T00:17:46;15.40;99.90
21906;DHT22;11117;48.644;9.006;2022-10-16T00:20:12;15.40;99.90
21906;DHT22;11117;48.644;9.006;2022-10-16T00:22:38;15.20;99.90
21906;DHT22;11117;48.644;9.006;2022-10-16T00:25:03;15.20;99.90
21906;DHT22;11117;48.644;9.006;2022-10-16T00:27:30;15.10;99.90
21906;DHT22;11117;48.644;9.006;2022-10-16T00:29:56;15.10;99.90
21906;DHT22;11117;48.644;9.006;2022-10-16T00:32:21;15.10;99.90
21906;DHT22;11117;48.644;9.006;2022-10-16T00:34:47;15.10;99.90
21906;DHT22;11117;48.644;9.006;2022-10-16T00:37:13;15.10;99.90
21906;DHT22;11117;48.644;9.006;2022-10-16T00:39:38;15.00;99.90
21906;DHT22;11117;48.644;9.006;2022-10-16T00:42:04;15.00;99.90
21906;DHT22;11117;48.644;9.006;2022-10-16T00:44:46;15.00;99.90
21906;DHT22;11117;48.644;9.006;2022-10-16T00:47:36;15.00;99.90
21906;DHT22;11117;48.644;9.006;2022-10-16T00:52:52;15.00;99.90
21906;DHT22;11117;48.644;9.006;2022-10-16T00:55:18;15.00;99.90
21906;DHT22;11117;48.644;9.006;2022-10-16T00:57:45;15.00;99.90
21906;DHT22;11117;48.644;9.006;2022-10-16T01:00:19;15.10;99.90
21906;DHT22;11117;48.644;9.006;2022-10-16T01:02:51;15.10;99.90
21906;DHT22;11117;48.644;9.006;2022-10-16T01:05:17;15.10;99.90
21906;DHT22;11117;48.644;9.006;2022-10-16T01:08:19;15.10;99.90
21906;DHT22;11117;48.644;9.006;2022-10-16T01:11:01;15.10;99.90
21906;DHT22;11117;48.644;9.006;2022-10-16T01:13:35;15.00;99.90
21906;DHT22;11117;48.644;9.006;2022-10-16T01:16:12;14.90;99.90
21906;DHT22;11117;48.644;9.006;2022-10-16T01:18:50;14.90;99.90
21906;DHT22;11117;48.644;9.006;2022-10-16T01:21:42;14.80;99.90
21906;DHT22;11117;48.644;9.006;2022-10-16T01:27:15;14.80;99.90
21906;DHT22;11117;48.644;9.006;2022-10-16T01:29:59;14.80;99.90
21906;DHT22;11117;48.644;9.006;2022-10-16T01:32:38;14.80;99.90
21906;DHT22;11117;48.644;9.006;2022-10-16T01:35:11;14.70;99.90
21906;DHT22;11117;48.644;9.006;2022-10-16T01:37:53;14.70;99.90
21906;DHT22;11117;48.644;9.006;2022-10-16T01:40:24;14.80;99.90
21906;DHT22;11117;48.644;9.006;2022-10-16T01:43:08;14.80;99.90
21906;DHT22;11117;48.644;9.006;2022-10-16T01:45:34;14.80;99.90
21906;DHT22;11117;48.644;9.006;2022-10-16T01:48:02;14.80;99.90
21906;DHT22;11117;48.644;9.006;2022-10-16T01:50:28;14.90;99.90
21906;DHT22;11117;48.644;9.006;2022-10-16T01:52:55;14.80;99.90
21906;DHT22;11117;48.644;9.006;2022-10-16T01:55:30;14.80;99.90
21906;DHT22;11117;48.644;9.006;2022-10-16T01:57:59;14.90;99.90
21906;DHT22;11117;48.644;9.006;2022-10-16T02:00:27;14.90;99.90
21906;DHT22;11117;48.644;9.006;2022-10-16T02:02:55;15.00;99.90
21906;DHT22;11117;48.644;9.006;2022-10-16T02:05:34;15.00;99.90
21906;DHT22;11117;48.644;9.006;2022-10-16T02:08:02;15.10;99.90
21906;DHT22;11117;48.644;9.006;2022-10-16T02:10:28;15.10;99.90
21906;DHT22;11117;48.644;9.006;2022-10-16T02:12:59;15.20;99.90
21906;DHT22;11117;48.644;9.006;2022-10-16T02:15:25;15.20;99.90
21906;DHT22;11117;48.644;9.006;2022-10-16T02:17:52;15.30;99.90
21906;DHT22;11117;48.644;9.006;2022-10-16T02:20:21;15.30;99.90
21906;DHT22;11117;48.644;9.006;2022-10-16T02:22:51;15.30;99.90
21906;DHT22;11117;48.644;9.006;2022-10-16T02:25:37;15.30;99.90
21906;DHT22;11117;48.644;9.006;2022-10-16T02:28:09;15.40;99.90
21906;DHT22;11117;48.644;9.006;2022-10-16T02:31:03;15.30;99.90
21906;DHT22;11117;48.644;9.006;2022-10-16T02:33:27;15.40;99.90
21906;DHT22;11117;48.644;9.006;2022-10-16T02:35:55;15.30;99.90
21906;DHT22;11117;48.644;9.006;2022-10-16T02:38:23;15.40;99.90
21906;DHT22;11117;48.644;9.006;2022-10-16T02:40:50;15.40;99.90
21906;DHT22;11117;48.644;9.006;2022-10-16T02:43:16;15.40;99.90
21906;DHT22;11117;48.644;9.006;2022-10-16T02:45:41;15.40;99.90
21906;DHT22;11117;48.644;9.006;2022-10-16T02:48:07;15.40;99.90
21906;DHT22;11117;48.644;9.006;2022-10-16T02:50:33;15.40;99.90
21906;DHT22;11117;48.644;9.006;2022-10-16T02:52:59;15.40;99.90
21906;DHT22;11117;48.644;9.006;2022-10-16T02:55:24;15.40;99.90
21906;DHT22;11117;48.644;9.006;2022-10-16T02:57:50;15.40;99.90
21906;DHT22;11117;48.644;9.006;2022-10-16T03:00:18;15.40;99.90
21906;DHT22;11117;48.644;9.006;2022-10-16T03:02:43;15.40;99.90
21906;DHT22;11117;48.644;9.006;2022-10-16T03:05:10;15.40;99.90
21906;DHT22;11117;48.644;9.006;2022-10-16T03:07:36;15.40;99.90
21906;DHT22;11117;48.644;9.006;2022-10-16T03:10:02;15.40;99.90
21906;DHT22;11117;48.644;9.006;2022-10-16T03:12:28;15.40;99.90
21906;DHT22;11117;48.644;9.006;2022-10-16T03:14:55;15.40;99.90
21906;DHT22;11117;48.644;9.006;2022-10-16T03:17:20;15.40;99.90
21906;DHT22;11117;48.644;9.006;2022-10-16T03:19:46;15.40;99.90
21906;DHT22;11117;48.644;9.006;2022-10-16T03:22:11;15.40;99.90
21906;DHT22;11117;48.644;9.006;2022-10-16T03:24:37;15.30;99.90
21906;DHT22;11117;48.644;9.006;2022-10-16T03:27:03;15.30;99.90
21906;DHT22;11117;48.644;9.006;2022-10-16T03:29:28;15.20;99.90
21906;DHT22;11117;48.644;9.006;2022-10-16T03:31:54;15.20;99.90
21906;DHT22;11117;48.644;9.006;2022-10-16T03:34:19;15.20;99.90
21906;DHT22;11117;48.644;9.006;2022-10-16T03:36:45;15.20;99.90
21906;DHT22;11117;48.644;9.006;2022-10-16T03:39:10;15.20;99.90
21906;DHT22;11117;48.644;9.006;2022-10-16T03:41:36;15.20;99.90
21906;DHT22;11117;48.644;9.006;2022-10-16T03:44:01;15.20;99.90
21906;DHT22;11117;48.644;9.006;2022-10-16T03:46:27;15.10;99.90
21906;DHT22;11117;48.644;9.006;2022-10-16T03:48:52;15.20;99.90
21906;DHT22;11117;48.644;9.006;2022-10-16T03:51:18;15.10;99.90
21906;DHT22;11117;48.644;9.006;2022-10-16T03:53:43;15.10;99.90
21906;DHT22;11117;48.644;9.006;2022-10-16T03:56:09;15.00;99.90
21906;DHT22;11117;48.644;9.006;2022-10-16T03:58:35;15.00;99.90
21906;DHT22;11117;48.644;9.006;2022-10-16T04:01:00;15.00;99.90
21906;DHT22;11117;48.644;9.006;2022-10-16T04:03:26;15.00;99.90
21906;DHT22;11117;48.644;9.006;2022-10-16T04:05:51;15.00;99.90
21906;DHT22;11117;48.644;9.006;2022-10-16T04:08:17;14.90;99.90
21906;DHT22;11117;48.644;9.006;2022-10-16T04:10:43;14.90;99.90
21906;DHT22;11117;48.644;9.006;2022-10-16T04:13:08;14.90;99.90
21906;DHT22;11117;48.644;9.006;2022-10-16T04:15:34;14.80;99.90
21906;DHT22;11117;48.644;9.006;2022-10-16T04:18:00;14.80;99.90
21906;DHT22;11117;48.644;9.006;2022-10-16T04:20:25;14.80;99.90
21906;DHT22;11117;48.644;9.006;2022-10-16T04:22:51;14.80;99.90
21906;DHT22;11117;48.644;9.006;2022-10-16T04:25:16;14.80;99.90
21906;DHT22;11117;48.644;9.006;2022-10-16T04:27:42;14.90;99.90
21906;DHT22;11117;48.644;9.006;2022-10-16T04:30:08;15.00;99.90
21906;DHT22;11117;48.644;9.006;2022-10-16T04:32:34;15.00;99.90
21906;DHT22;11117;48.644;9.006;2022-10-16T04:34:59;15.00;99.90
21906;DHT22;11117;48.644;9.006;2022-10-16T04:37:26;15.00;99.90
21906;DHT22;11117;48.644;9.006;2022-10-16T04:39:52;15.00;99.90
21906;DHT22;11117;48.644;9.006;2022-10-16T04:42:20;15.00;99.90
21906;DHT22;11117;48.644;9.006;2022-10-16T04:44:46;15.00;99.90
21906;DHT22;11117;48.644;9.006;2022-10-16T04:47:13;15.00;99.90
21906;DHT22;11117;48.644;9.006;2022-10-16T04:49:38;15.10;99.90
21906;DHT22;11117;48.644;9.006;2022-10-16T04:52:04;15.10;99.90
21906;DHT22;11117;48.644;9.006;2022-10-16T04:54:30;15.10;99.90
21906;DHT22;11117;48.644;9.006;2022-10-16T04:56:58;15.10;99.90
21906;DHT22;11117;48.644;9.006;2022-10-16T04:59:30;15.10;99.90
21906;DHT22;11117;48.644;9.006;2022-10-16T05:01:56;15.00;99.90
21906;DHT22;11117;48.644;9.006;2022-10-16T05:04:21;15.00;99.90
21906;DHT22;11117;48.644;9.006;2022-10-16T05:06:47;15.00;99.90
21906;DHT22;11117;48.644;9.006;2022-10-16T05:09:13;15.00;99.90
21906;DHT22;11117;48.644;9.006;2022-10-16T05:11:39;15.00;99.90
21906;DHT22;11117;48.644;9.006;2022-10-16T05:14:07;14.90;99.90
21906;DHT22;11117;48.644;9.006;2022-10-16T05:16:33;14.90;99.90
21906;DHT22;11117;48.644;9.006;2022-10-16T05:18:59;14.90;99.90
21906;DHT22;11117;48.644;9.006;2022-10-16T05:21:24;14.80;99.90
21906;DHT22;11117;48.644;9.006;2022-10-16T05:23:50;14.80;99.90
21906;DHT22;11117;48.644;9.006;2022-10-16T05:26:15;14.80;99.90
21906;DHT22;11117;48.644;9.006;2022-10-16T05:28:41;14.80;99.90
21906;DHT22;11117;48.644;9.006;2022-10-16T05:31:08;14.80;99.90
21906;DHT22;11117;48.644;9.006;2022-10-16T05:33:34;14.70;99.90
21906;DHT22;11117;48.644;9.006;2022-10-16T05:36:04;14.70;99.90
21906;DHT22;11117;48.644;9.006;2022-10-16T05:38:30;14.70;99.90
21906;DHT22;11117;48.644;9.006;2022-10-16T05:40:55;14.70;99.90
21906;DHT22;11117;48.644;9.006;2022-10-16T05:43:21;14.80;99.90
21906;DHT22;11117;48.644;9.006;2022-10-16T05:46:02;14.80;99.90
21906;DHT22;11117;48.644;9.006;2022-10-16T05:48:28;14.80;99.90
21906;DHT22;11117;48.644;9.006;2022-10-16T05:51:02;14.80;99.90
21906;DHT22;11117;48.644;9.006;2022-10-16T05:53:30;14.90;99.90
21906;DHT22;11117;48.644;9.006;2022-10-16T05:55:58;14.90;99.90
21906;DHT22;11117;48.644;9.006;2022-10-16T05:58:24;15.00;99.90
21906;DHT22;11117;48.644;9.006;2022-10-16T06:00:58;15.00;99.90
21906;DHT22;11117;48.644;9.006;2022-10-16T06:03:27;15.10;99.90
21906;DHT22;11117;48.644;9.006;2022-10-16T06:05:53;15.10;99.90
21906;DHT22;11117;48.644;9.006;2022-10-16T06:08:23;15.10;99.90
21906;DHT22;11117;48.644;9.006;2022-10-16T06:10:49;15.00;99.90
21906;DHT22;11117;48.644;9.006;2022-10-16T06:13:25;15.00;99.90
21906;DHT22;11117;48.644;9.006;2022-10-16T06:15:50;15.10;99.90
21906;DHT22;11117;48.644;9.006;2022-10-16T06:18:19;15.10;99.90
21906;DHT22;11117;48.644;9.006;2022-10-16T06:20:44;15.10;99.90
21906;DHT22;11117;48.644;9.006;2022-10-16T06:23:10;15.20;99.90
21906;DHT22;11117;48.644;9.006;2022-10-16T06:25:35;15.20;99.90
21906;DHT22;11117;48.644;9.006;2022-10-16T06:28:01;15.30;99.90
21906;DHT22;11117;48.644;9.006;2022-10-16T06:30:27;15.40;99.90
21906;DHT22;11117;48.644;9.006;2022-10-16T06:32:52;15.40;99.90
21906;DHT22;11117;48.644;9.006;2022-10-16T06:35:18;15.40;99.90
21906;DHT22;11117;48.644;9.006;2022-10-16T06:37:43;15.50;99.90
21906;DHT22;11117;48.644;9.006;2022-10-16T06:40:09;15.60;99.90
21906;DHT22;11117;48.644;9.006;2022-10-16T06:42:34;15.70;99.90
21906;DHT22;11117;48.644;9.006;2022-10-16T06:45:00;15.80;99.90
21906;DHT22;11117;48.644;9.006;2022-10-16T06:47:26;15.90;99.90
21906;DHT22;11117;48.644;9.006;2022-10-16T06:49:51;16.00;99.90
21906;DHT22;11117;48.644;9.006;2022-10-16T06:52:17;16.00;99.90
21906;DHT22;11117;48.644;9.006;2022-10-16T06:54:42;16.10;99.90
21906;DHT22;11117;48.644;9.006;2022-10-16T06:57:08;16.20;99.90
21906;DHT22;11117;48.644;9.006;2022-10-16T06:59:33;16.20;99.90
21906;DHT22;11117;48.644;9.006;2022-10-16T07:01:59;16.30;99.90
21906;DHT22;11117;48.644;9.006;2022-10-16T07:04:24;16.40;99.90
21906;DHT22;11117;48.644;9.006;2022-10-16T07:06:50;16.50;99.90
21906;DHT22;11117;48.644;9.006;2022-10-16T07:09:15;16.50;99.90
21906;DHT22;11117;48.644;9.006;2022-10-16T07:11:41;16.50;99.90
21906;DHT22;11117;48.644;9.006;2022-10-16T07:14:16;16.50;99.90
21906;DHT22;11117;48.644;9.006;2022-10-16T07:16:42;16.50;99.90
21906;DHT22;11117;48.644;9.006;2022-10-16T07:19:08;16.30;99.90
21906;DHT22;11117;48.644;9.006;2022-10-16T07:21:34;16.30;99.90
21906;DHT22;11117;48.644;9.006;2022-10-16T07:24:00;16.30;99.90
21906;DHT22;11117;48.644;9.006;2022-10-16T07:26:30;16.30;99.90
21906;DHT22;11117;48.644;9.006;2022-10-16T07:28:56;16.20;99.90
21906;DHT22;11117;48.644;9.006;2022-10-16T07:31:22;16.30;99.90
21906;DHT22;11117;48.644;9.006;2022-10-16T07:33:48;16.40;99.90
21906;DHT22;11117;48.644;9.006;2022-10-16T07:36:16;16.40;99.90
21906;DHT22;11117;48.644;9.006;2022-10-16T07:38:42;16.60;99.90
21906;DHT22;11117;48.644;9.006;2022-10-16T07:41:16;16.70;99.90
21906;DHT22;11117;48.644;9.006;2022-10-16T07:43:46;16.80;99.90
21906;DHT22;11117;48.644;9.006;2022-10-16T07:46:12;16.90;99.90
21906;DHT22;11117;48.644;9.006;2022-10-16T07:48:38;17.10;99.90
21906;DHT22;11117;48.644;9.006;2022-10-16T07:51:05;17.10;99.90
21906;DHT22;11117;48.644;9.006;2022-10-16T07:53:31;17.20;99.90
21906;DHT22;11117;48.644;9.006;2022-10-16T07:56:03;17.30;99.90
21906;DHT22;11117;48.644;9.006;2022-10-16T07:58:29;17.30;99.90
21906;DHT22;11117;48.644;9.006;2022-10-16T08:00:56;17.40;99.90
21906;DHT22;11117;48.644;9.006;2022-10-16T08:03:23;17.40;99.90
21906;DHT22;11117;48.644;9.006;2022-10-16T08:05:48;17.50;99.90
21906;DHT22;11117;48.644;9.006;2022-10-16T08:08:15;17.60;99.90
21906;DHT22;11117;48.644;9.006;2022-10-16T08:10:41;17.60;99.90
21906;DHT22;11117;48.644;9.006;2022-10-16T08:13:07;17.70;99.90
21906;DHT22;11117;48.644;9.006;2022-10-16T08:15:33;17.80;99.90
21906;DHT22;11117;48.644;9.006;2022-10-16T08:18:04;18.00;99.90
21906;DHT22;11117;48.644;9.006;2022-10-16T08:20:31;18.10;99.90
21906;DHT22;11117;48.644;9.006;2022-10-16T08:22:57;18.30;99.90
21906;DHT22;11117;48.644;9.006;2022-10-16T08:25:23;18.50;99.90
21906;DHT22;11117;48.644;9.006;2022-10-16T08:27:49;18.70;99.90
21906;DHT22;11117;48.644;9.006;2022-10-16T08:30:16;18.80;99.90
21906;DHT22;11117;48.644;9.006;2022-10-16T08:32:43;18.90;99.90
21906;DHT22;11117;48.644;9.006;2022-10-16T08:35:10;19.00;99.90
21906;DHT22;11117;48.644;9.006;2022-10-16T08:37:36;19.10;99.90
21906;DHT22;11117;48.644;9.006;2022-10-16T08:40:02;19.00;99.90
21906;DHT22;11117;48.644;9.006;2022-10-16T08:45:49;18.90;99.90
21906;DHT22;11117;48.644;9.006;2022-10-16T08:50:56;19.00;99.90
21906;DHT22;11117;48.644;9.006;2022-10-16T08:53:41;19.10;99.90
21906;DHT22;11117;48.644;9.006;2022-10-16T08:56:08;19.30;99.90
21906;DHT22;11117;48.644;9.006;2022-10-16T08:58:33;19.30;99.90
21906;DHT22;11117;48.644;9.006;2022-10-16T09:01:02;19.50;99.90
21906;DHT22;11117;48.644;9.006;2022-10-16T09:06:06;19.70;99.90
21906;DHT22;11117;48.644;9.006;2022-10-16T09:17:36;20.00;99.90
21906;DHT22;11117;48.644;9.006;2022-10-16T09:25:29;20.30;99.90
21906;DHT22;11117;48.644;9.006;2022-10-16T09:27:55;20.50;99.90
21906;DHT22;11117;48.644;9.006;2022-10-16T09:30:22;20.60;99.90
21906;DHT22;11117;48.644;9.006;2022-10-16T09:32:50;20.90;99.90
21906;DHT22;11117;48.644;9.006;2022-10-16T09:35:44;21.00;99.90
21906;DHT22;11117;48.644;9.006;2022-10-16T09:38:31;21.20;99.90
21906;DHT22;11117;48.644;9.006;2022-10-16T09:40:58;21.40;99.90
21906;DHT22;11117;48.644;9.006;2022-10-16T09:46:30;21.70;99.90
21906;DHT22;11117;48.644;9.006;2022-10-16T09:49:05;21.90;99.90
21906;DHT22;11117;48.644;9.006;2022-10-16T09:51:34;22.10;99.90
21906;DHT22;11117;48.644;9.006;2022-10-16T09:54:02;22.30;99.90
21906;DHT22;11117;48.644;9.006;2022-10-16T09:56:30;22.50;99.90
21906;DHT22;11117;48.644;9.006;2022-10-16T09:58:59;22.60;99.90
21906;DHT22;11117;48.644;9.006;2022-10-16T10:01:36;22.80;99.90
21906;DHT22;11117;48.644;9.006;2022-10-16T10:04:02;23.10;99.90
21906;DHT22;11117;48.644;9.006;2022-10-16T10:06:34;23.30;99.90
21906;DHT22;11117;48.644;9.006;2022-10-16T10:11:51;23.30;99.90
21906;DHT22;11117;48.644;9.006;2022-10-16T10:19:54;23.80;99.90
21906;DHT22;11117;48.644;9.006;2022-10-16T10:27:50;24.10;99.90
21906;DHT22;11117;48.644;9.006;2022-10-16T10:30:35;24.10;99.90
21906;DHT22;11117;48.644;9.006;2022-10-16T10:33:45;24.10;99.90
21906;DHT22;11117;48.644;9.006;2022-10-16T10:36:37;24.20;99.90
21906;DHT22;11117;48.644;9.006;2022-10-16T10:39:15;24.30;99.90
21906;DHT22;11117;48.644;9.006;2022-10-16T10:47:32;24.00;99.90
21906;DHT22;11117;48.644;9.006;2022-10-16T10:50:24;23.90;99.90
21906;DHT22;11117;48.644;9.006;2022-10-16T10:55:58;23.70;99.90
21906;DHT22;11117;48.644;9.006;2022-10-16T11:01:01;23.80;99.90
21906;DHT22;11117;48.644;9.006;2022-10-16T11:09:09;23.20;99.90
21906;DHT22;11117;48.644;9.006;2022-10-16T11:11:43;23.00;99.90
21906;DHT22;11117;48.644;9.006;2022-10-16T11:17:07;23.30;99.90
21906;DHT22;11117;48.644;9.006;2022-10-16T11:19:47;23.10;99.90
21906;DHT22;11117;48.644;9.006;2022-10-16T11:25:13;23.10;99.90
21906;DHT22;11117;48.644;9.006;2022-10-16T11:28:11;23.20;99.90
21906;DHT22;11117;48.644;9.006;2022-10-16T11:31:10;23.40;99.90
21906;DHT22;11117;48.644;9.006;2022-10-16T11:33:43;23.60;99.90
21906;DHT22;11117;48.644;9.006;2022-10-16T11:36:21;23.70;99.90
21906;DHT22;11117;48.644;9.006;2022-10-16T11:39:26;23.70;99.90
21906;DHT22;11117;48.644;9.006;2022-10-16T11:42:07;23.50;99.90
21906;DHT22;11117;48.644;9.006;2022-10-16T11:47:35;23.50;99.90
21906;DHT22;11117;48.644;9.006;2022-10-16T11:53:18;23.30;99.90
21906;DHT22;11117;48.644;9.006;2022-10-16T11:55:47;23.10;99.90
21906;DHT22;11117;48.644;9.006;2022-10-16T12:01:28;23.20;99.90
21906;DHT22;11117;48.644;9.006;2022-10-16T12:04:11;23.10;99.90
21906;DHT22;11117;48.644;9.006;2022-10-16T12:06:47;23.40;99.90
21906;DHT22;11117;48.644;9.006;2022-10-16T12:09:21;23.80;99.90
21906;DHT22;11117;48.644;9.006;2022-10-16T12:11:48;24.20;99.90
21906;DHT22;11117;48.644;9.006;2022-10-16T12:16:58;24.80;99.90
21906;DHT22;11117;48.644;9.006;2022-10-16T12:19:26;24.90;99.90
21906;DHT22;11117;48.644;9.006;2022-10-16T12:21:55;24.50;99.00
21906;DHT22;11117;48.644;9.006;2022-10-16T12:24:36;24.20;99.10
21906;DHT22;11117;48.644;9.006;2022-10-16T12:27:05;24.40;99.90
21906;DHT22;11117;48.644;9.006;2022-10-16T12:29:41;24.30;99.20
21906;DHT22;11117;48.644;9.006;2022-10-16T12:32:30;24.20;99.90
21906;DHT22;11117;48.644;9.006;2022-10-16T12:34:57;24.20;99.90
21906;DHT22;11117;48.644;9.006;2022-10-16T12:37:32;23.90;98.20
21906;DHT22;11117;48.644;9.006;2022-10-16T12:39:59;23.40;98.00
21906;DHT22;11117;48.644;9.006;2022-10-16T12:42:36;23.30;98.60
21906;DHT22;11117;48.644;9.006;2022-10-16T12:47:52;23.40;98.70
21906;DHT22;11117;48.644;9.006;2022-10-16T12:50:40;23.40;98.20
21906;DHT22;11117;48.644;9.006;2022-10-16T12:53:20;23.30;98.30
21906;DHT22;11117;48.644;9.006;2022-10-16T12:58:20;23.60;99.60
21906;DHT22;11117;48.644;9.006;2022-10-16T13:00:57;23.70;99.20
21906;DHT22;11117;48.644;9.006;2022-10-16T13:06:43;23.60;98.70
21906;DHT22;11117;48.644;9.006;2022-10-16T13:12:15;23.70;98.30
21906;DHT22;11117;48.644;9.006;2022-10-16T13:22:55;24.10;96.90
21906;DHT22;11117;48.644;9.006;2022-10-16T13:28:11;24.30;96.70
21906;DHT22;11117;48.644;9.006;2022-10-16T13:30:39;24.50;97.10
21906;DHT22;11117;48.644;9.006;2022-10-16T13:33:32;24.40;96.90
21906;DHT22;11117;48.644;9.006;2022-10-16T13:35:59;24.60;96.80
21906;DHT22;11117;48.644;9.006;2022-10-16T13:38:36;24.70;97.50
21906;DHT22;11117;48.644;9.006;2022-10-16T13:41:12;24.70;95.60
21906;DHT22;11117;48.644;9.006;2022-10-16T13:43:58;24.70;96.20
21906;DHT22;11117;48.644;9.006;2022-10-16T13:46:25;24.60;95.70
21906;DHT22;11117;48.644;9.006;2022-10-16T13:49:03;24.50;96.40
21906;DHT22;11117;48.644;9.006;2022-10-16T13:51:29;24.60;96.60
21906;DHT22;11117;48.644;9.006;2022-10-16T13:53:56;24.40;96.00
21906;DHT22;11117;48.644;9.006;2022-10-16T13:56:24;24.40;96.00
21906;DHT22;11117;48.644;9.006;2022-10-16T13:59:04;24.50;96.20
21906;DHT22;11117;48.644;9.006;2022-10-16T14:01:34;24.60;96.60
21906;DHT22;11117;48.644;9.006;2022-10-16T14:04:08;24.70;96.40
21906;DHT22;11117;48.644;9.006;2022-10-16T14:06:35;24.70;96.20
21906;DHT22;11117;48.644;9.006;2022-10-16T14:11:33;24.80;96.10
21906;DHT22;11117;48.644;9.006;2022-10-16T14:14:00;24.70;96.50
21906;DHT22;11117;48.644;9.006;2022-10-16T14:16:29;24.60;96.20
21906;DHT22;11117;48.644;9.006;2022-10-16T14:19:04;24.60;97.00
21906;DHT22;11117;48.644;9.006;2022-10-16T14:21:30;24.60;96.60
21906;DHT22;11117;48.644;9.006;2022-10-16T14:23:56;24.70;96.80
21906;DHT22;11117;48.644;9.006;2022-10-16T14:26:27;24.70;96.80
21906;DHT22;11117;48.644;9.006;2022-10-16T14:29:15;24.80;97.10
21906;DHT22;11117;48.644;9.006;2022-10-16T14:31:53;24.90;97.30
21906;DHT22;11117;48.644;9.006;2022-10-16T14:34:38;24.90;96.30
21906;DHT22;11117;48.644;9.006;2022-10-16T14:37:23;24.90;96.30
21906;DHT22;11117;48.644;9.006;2022-10-16T14:39:50;24.80;96.40
21906;DHT22;11117;48.644;9.006;2022-10-16T14:42:18;24.80;96.90
21906;DHT22;11117;48.644;9.006;2022-10-16T14:44:48;24.80;96.10
21906;DHT22;11117;48.644;9.006;2022-10-16T14:47:19;24.70;96.30
21906;DHT22;11117;48.644;9.006;2022-10-16T14:49:45;24.50;96.60
21906;DHT22;11117;48.644;9.006;2022-10-16T14:52:12;24.50;96.80
21906;DHT22;11117;48.644;9.006;2022-10-16T14:54:38;24.40;96.50
21906;DHT22;11117;48.644;9.006;2022-10-16T14:57:04;24.30;96.60
21906;DHT22;11117;48.644;9.006;2022-10-16T14:59:41;24.20;96.20
21906;DHT22;11117;48.644;9.006;2022-10-16T15:04:50;24.00;97.10
21906;DHT22;11117;48.644;9.006;2022-10-16T15:07:16;24.00;97.20
21906;DHT22;11117;48.644;9.006;2022-10-16T15:09:42;23.90;97.40
21906;DHT22;11117;48.644;9.006;2022-10-16T15:12:07;23.80;97.40
21906;DHT22;11117;48.644;9.006;2022-10-16T15:14:33;23.70;97.40
21906;DHT22;11117;48.644;9.006;2022-10-16T15:16:59;23.60;97.50
21906;DHT22;11117;48.644;9.006;2022-10-16T15:19:24;23.50;97.40
21906;DHT22;11117;48.644;9.006;2022-10-16T15:21:50;23.40;97.90
21906;DHT22;11117;48.644;9.006;2022-10-16T15:24:15;23.30;98.30
21906;DHT22;11117;48.644;9.006;2022-10-16T15:26:41;23.30;98.90
21906;DHT22;11117;48.644;9.006;2022-10-16T15:29:07;23.20;98.80
21906;DHT22;11117;48.644;9.006;2022-10-16T15:31:33;23.20;99.00
21906;DHT22;11117;48.644;9.006;2022-10-16T15:33:59;23.00;99.20
21906;DHT22;11117;48.644;9.006;2022-10-16T15:36:29;22.90;99.50
21906;DHT22;11117;48.644;9.006;2022-10-16T15:38:55;22.90;99.80
21906;DHT22;11117;48.644;9.006;2022-10-16T15:41:22;22.70;99.90
21906;DHT22;11117;48.644;9.006;2022-10-16T15:43:49;22.60;99.90
21906;DHT22;11117;48.644;9.006;2022-10-16T15:46:17;22.50;99.90
21906;DHT22;11117;48.644;9.006;2022-10-16T15:48:42;22.50;99.90
21906;DHT22;11117;48.644;9.006;2022-10-16T15:51:30;22.40;99.90
21906;DHT22;11117;48.644;9.006;2022-10-16T15:54:00;22.20;99.90
21906;DHT22;11117;48.644;9.006;2022-10-16T15:56:26;22.10;99.90
21906;DHT22;11117;48.644;9.006;2022-10-16T15:58:52;22.00;99.90
21906;DHT22;11117;48.644;9.006;2022-10-16T16:01:17;21.90;99.90
21906;DHT22;11117;48.644;9.006;2022-10-16T16:03:43;21.80;99.90
21906;DHT22;11117;48.644;9.006;2022-10-16T16:06:11;21.70;99.90
21906;DHT22;11117;48.644;9.006;2022-10-16T16:08:38;21.70;99.90
21906;DHT22;11117;48.644;9.006;2022-10-16T16:11:09;21.50;99.90
21906;DHT22;11117;48.644;9.006;2022-10-16T16:13:35;21.40;99.90
21906;DHT22;11117;48.644;9.006;2022-10-16T16:16:01;21.30;99.90
21906;DHT22;11117;48.644;9.006;2022-10-16T16:18:27;21.20;99.90
21906;DHT22;11117;48.644;9.006;2022-10-16T16:20:52;21.10;99.90
21906;DHT22;11117;48.644;9.006;2022-10-16T16:23:18;21.00;99.90
21906;DHT22;11117;48.644;9.006;2022-10-16T16:25:43;20.90;99.90
21906;DHT22;11117;48.644;9.006;2022-10-16T16:28:11;20.80;99.90
21906;DHT22;11117;48.644;9.006;2022-10-16T16:30:37;20.70;99.90
21906;DHT22;11117;48.644;9.006;2022-10-16T16:33:03;20.50;99.90
21906;DHT22;11117;48.644;9.006;2022-10-16T16:35:28;20.40;99.90
21906;DHT22;11117;48.644;9.006;2022-10-16T16:37:54;20.30;99.90
21906;DHT22;11117;48.644;9.006;2022-10-16T16:40:19;20.20;99.90
21906;DHT22;11117;48.644;9.006;2022-10-16T16:42:48;20.10;99.90
21906;DHT22;11117;48.644;9.006;2022-10-16T16:45:13;20.00;99.90
21906;DHT22;11117;48.644;9.006;2022-10-16T16:47:39;19.90;99.90
21906;DHT22;11117;48.644;9.006;2022-10-16T16:50:05;19.80;99.90
21906;DHT22;11117;48.644;9.006;2022-10-16T16:52:31;19.70;99.90
21906;DHT22;11117;48.644;9.006;2022-10-16T16:54:56;19.60;99.90
21906;DHT22;11117;48.644;9.006;2022-10-16T16:57:22;19.50;99.90
21906;DHT22;11117;48.644;9.006;2022-10-16T16:59:49;19.40;99.90
21906;DHT22;11117;48.644;9.006;2022-10-16T17:02:15;19.20;99.90
21906;DHT22;11117;48.644;9.006;2022-10-16T17:05:22;19.20;99.90
21906;DHT22;11117;48.644;9.006;2022-10-16T17:07:47;19.10;99.90
21906;DHT22;11117;48.644;9.006;2022-10-16T17:14:15;19.00;99.90
21906;DHT22;11117;48.644;9.006;2022-10-16T17:16:41;18.80;99.90
21906;DHT22;11117;48.644;9.006;2022-10-16T17:19:10;18.70;99.90
21906;DHT22;11117;48.644;9.006;2022-10-16T17:21:36;18.70;99.90
21906;DHT22;11117;48.644;9.006;2022-10-16T17:24:02;18.60;99.90
21906;DHT22;11117;48.644;9.006;2022-10-16T17:26:36;18.60;99.90
21906;DHT22;11117;48.644;9.006;2022-10-16T17:29:02;18.40;99.90
21906;DHT22;11117;48.644;9.006;2022-10-16T17:31:29;18.40;99.90
21906;DHT22;11117;48.644;9.006;2022-10-16T17:33:57;18.30;99.90
21906;DHT22;11117;48.644;9.006;2022-10-16T17:36:22;18.30;99.90